Terminal Aerodrome Forecast
Issued by NWS

Home | Current Version | Previous Version | Graphics & Text | Print | Product List | Glossary On
Versions: 1 2 3 4 5 6 7 8 9 10 11 12 13 14 15
220
FTUS43 KOAX 291720
TAFCDR
TAF
KCDR 291720Z 2918/3018 05011KT P6SM OVC015
     FM292000 06012KT 5SM -RA OVC018
     FM300000 05009KT 2SM -RA BR OVC012
     FM300600 05008KT 3/4SM -SNRA BR OVC009
     FM301500 02015KT 3SM -SNRA BR OVC015=

USA.gov is the U.S. government's official web portal to all federal, state and local government web resources and services.